createdAt,value
2018-04-10T00:01:49.876Z,99392
2018-04-10T00:04:18.212Z,99393
2018-04-10T00:06:48.503Z,99398
2018-04-10T00:09:16.773Z,99396
2018-04-10T00:11:45.255Z,99400
2018-04-10T00:14:13.733Z,99403
2018-04-10T00:16:42.104Z,99399
2018-04-10T00:19:10.509Z,99399
2018-04-10T00:21:38.833Z,99400
2018-04-10T00:24:07.172Z,99407
2018-04-10T00:26:35.524Z,99406
2018-04-10T00:29:03.924Z,99413
2018-04-10T00:31:32.297Z,99411
2018-04-10T00:34:00.868Z,99418
2018-04-10T00:36:29.233Z,99419
2018-04-10T00:38:57.581Z,99419
2018-04-10T00:41:26.139Z,99419
2018-04-10T00:43:55.364Z,99419
2018-04-10T00:46:24.002Z,99419
2018-04-10T00:48:52.398Z,99421
2018-04-10T00:51:21.588Z,99422
2018-04-10T00:53:50.822Z,99424
2018-04-10T00:56:19.154Z,99425
2018-04-10T00:58:47.742Z,99419
2018-04-10T01:01:16.401Z,99424
2018-04-10T01:03:44.730Z,99431
2018-04-10T01:06:13.929Z,99427
2018-04-10T01:08:44.117Z,99422
2018-04-10T01:11:12.393Z,99422
2018-04-10T01:13:40.874Z,99418
2018-04-10T01:16:09.932Z,99418
2018-04-10T01:18:38.271Z,99420
2018-04-10T01:21:07.442Z,99417
2018-04-10T01:23:35.796Z,99416
2018-04-10T01:26:04.138Z,99419
2018-04-10T01:28:32.464Z,99426
2018-04-10T01:31:01.021Z,99431
2018-04-10T01:33:29.445Z,99437
2018-04-10T01:35:57.909Z,99438
2018-04-10T01:38:26.231Z,99443
2018-04-10T01:40:54.712Z,99436
2018-04-10T01:43:23.766Z,99441
2018-04-10T01:45:52.269Z,99442
2018-04-10T01:48:20.778Z,99447
2018-04-10T01:50:49.215Z,99447
2018-04-10T01:53:17.520Z,99443
2018-04-10T01:55:46.688Z,99448
2018-04-10T01:58:15.034Z,99445
2018-04-10T02:00:43.353Z,99440
2018-04-10T02:03:11.666Z,99422
2018-04-10T02:05:40.144Z,99417
2018-04-10T02:08:08.707Z,99415
2018-04-10T02:10:38.984Z,99415
2018-04-10T02:13:07.579Z,99414
2018-04-10T02:15:35.866Z,99420
2018-04-10T02:18:04.569Z,99426
2018-04-10T02:20:33.861Z,99433
2018-04-10T02:23:02.165Z,99443
2018-04-10T02:25:31.285Z,99443
2018-04-10T02:27:59.678Z,99449
2018-04-10T02:30:28.089Z,99441
2018-04-10T02:32:56.448Z,99450
2018-04-10T02:35:24.903Z,99457
2018-04-10T02:37:53.265Z,99455
2018-04-10T02:40:21.765Z,99453
2018-04-10T02:42:50.122Z,99460
2018-04-10T02:45:18.593Z,99469
2018-04-10T02:47:47.804Z,99461
2018-04-10T02:50:16.093Z,99453
2018-04-10T02:52:44.556Z,99451
2018-04-10T02:55:12.886Z,99447
2018-04-10T02:57:41.439Z,99444
2018-04-10T03:00:09.850Z,99442
2018-04-10T03:02:38.125Z,99439
2018-04-10T03:05:06.483Z,99436
2018-04-10T03:07:34.880Z,99440
2018-04-10T03:10:03.326Z,99449
2018-04-10T03:12:31.641Z,99449
2018-04-10T03:15:01.499Z,99449
2018-04-10T03:17:29.900Z,99449
2018-04-10T03:19:58.565Z,99450
2018-04-10T03:22:27.000Z,99454
2018-04-10T03:24:55.309Z,99451
2018-04-10T03:27:24.454Z,99452
2018-04-10T03:29:52.901Z,99452
2018-04-10T03:32:21.361Z,99455
2018-04-10T03:34:50.665Z,99453
2018-04-10T03:37:19.856Z,99446
2018-04-10T03:39:49.074Z,99447
2018-04-10T03:42:17.436Z,99448
2018-04-10T03:44:46.649Z,99451
2018-04-10T03:47:15.255Z,99447
2018-04-10T03:49:43.555Z,99456
2018-04-10T03:52:11.883Z,99457
2018-04-10T03:54:40.964Z,99460
2018-04-10T03:57:10.045Z,99469
2018-04-10T03:59:38.324Z,99468
2018-04-10T04:02:06.696Z,99472
2018-04-10T04:04:35.000Z,99470
2018-04-10T04:07:06.004Z,99474
2018-04-10T04:09:34.279Z,99477
2018-04-10T04:12:02.579Z,99479
2018-04-10T04:14:31.805Z,99481
2018-04-10T04:17:18.100Z,99490
2018-04-10T04:20:04.295Z,99495
2018-04-10T04:22:40.404Z,99486
2018-04-10T04:25:08.796Z,99481
2018-04-10T04:27:38.739Z,99480
2018-04-10T04:30:08.175Z,99487
2018-04-10T04:32:36.476Z,99480
2018-04-10T04:35:04.825Z,99478
2018-04-10T04:37:33.255Z,99482
2018-04-10T04:40:01.578Z,99484
2018-04-10T04:42:30.455Z,99482
2018-04-10T04:44:58.784Z,99488
2018-04-10T04:47:27.358Z,99479
2018-04-10T04:49:55.811Z,99482
2018-04-10T04:52:24.556Z,99483
2018-04-10T04:54:53.784Z,99483
2018-04-10T04:57:22.198Z,99484
2018-04-10T04:59:50.780Z,99481
2018-04-10T05:02:19.356Z,99491
2018-04-10T05:04:48.140Z,99499
2018-04-10T05:07:16.495Z,99496
2018-04-10T05:09:44.884Z,99495
2018-04-10T05:12:13.234Z,99497
2018-04-10T05:14:42.323Z,99505
2018-04-10T05:17:11.442Z,99507
2018-04-10T05:19:39.796Z,99510
2018-04-10T05:22:09.130Z,99509
2018-04-10T05:24:37.500Z,99512
2018-04-10T05:27:05.980Z,99509
2018-04-10T05:29:34.561Z,99511
2018-04-10T05:32:03.028Z,99518
2018-04-10T05:34:32.040Z,99521
2018-04-10T05:37:00.434Z,99523
2018-04-10T05:39:28.759Z,99528
2018-04-10T05:41:57.060Z,99528
2018-04-10T05:44:25.369Z,99525
2018-04-10T05:46:53.671Z,99524
2018-04-10T05:49:22.116Z,99523
2018-04-10T05:51:50.469Z,99526
2018-04-10T05:54:19.156Z,99530
2018-04-10T05:56:47.595Z,99535
2018-04-10T05:59:15.873Z,99535
2018-04-10T06:01:44.279Z,99539
2018-04-10T06:04:14.799Z,99537
2018-04-10T06:06:43.312Z,99541
2018-04-10T06:09:11.735Z,99537
2018-04-10T06:11:40.050Z,99532
2018-04-10T06:14:09.110Z,99537
2018-04-10T06:16:37.511Z,99535
2018-04-10T06:19:06.576Z,99539
2018-04-10T06:21:34.968Z,99546
2018-04-10T06:24:03.419Z,99545
2018-04-10T06:26:31.730Z,99548
2018-04-10T06:29:00.955Z,99550
2018-04-10T06:31:29.519Z,99553
2018-04-10T06:33:57.905Z,99557
2018-04-10T06:36:27.031Z,99552
2018-04-10T06:38:55.477Z,99556
2018-04-10T06:41:24.727Z,99558
2018-04-10T06:43:53.075Z,99564
2018-04-10T06:46:21.372Z,99563
2018-04-10T06:48:49.833Z,99570
2018-04-10T06:51:18.392Z,99568
2018-04-10T06:53:47.641Z,99565
2018-04-10T06:56:16.130Z,99567
2018-04-10T06:58:44.777Z,99567
2018-04-10T07:01:13.156Z,99574
2018-04-10T07:03:41.763Z,99576
2018-04-10T07:06:10.710Z,99575
2018-04-10T07:08:39.051Z,99580
2018-04-10T07:11:07.528Z,99576
2018-04-10T07:13:35.834Z,99577
2018-04-10T07:16:05.009Z,99582
2018-04-10T07:18:33.671Z,99582
2018-04-10T07:21:02.150Z,99586
2018-04-10T07:23:30.480Z,99584
2018-04-10T07:25:58.829Z,99575
2018-04-10T07:28:27.416Z,99585
2018-04-10T07:30:55.838Z,99585
2018-04-10T07:33:24.905Z,99581
2018-04-10T07:35:53.455Z,99576
2018-04-10T07:38:23.939Z,99572
2018-04-10T07:40:53.117Z,99567
2018-04-10T07:43:21.655Z,99571
2018-04-10T07:45:50.034Z,99572
2018-04-10T07:48:18.519Z,99570
2018-04-10T07:50:46.994Z,99575
2018-04-10T07:53:15.328Z,99573
2018-04-10T07:55:44.576Z,99573
2018-04-10T07:58:13.007Z,99569
2018-04-10T08:00:42.193Z,99573
2018-04-10T08:03:10.575Z,99575
2018-04-10T08:05:39.075Z,99580
2018-04-10T08:08:08.121Z,99580
2018-04-10T08:10:37.552Z,99586
2018-04-10T08:13:07.008Z,99590
2018-04-10T08:15:35.322Z,99597
2018-04-10T08:18:03.727Z,99590
2018-04-10T08:20:32.908Z,99596
2018-04-10T08:23:01.198Z,99599
2018-04-10T08:25:30.457Z,99606
2018-04-10T08:27:58.730Z,99620
2018-04-10T08:30:27.055Z,99619
2018-04-10T08:32:56.231Z,99623
2018-04-10T08:35:26.100Z,99628
2018-04-10T08:40:28.963Z,99631
2018-04-10T08:42:58.305Z,99627
2018-04-10T08:45:26.653Z,99628
2018-04-10T08:47:55.198Z,99637
2018-04-10T08:50:23.576Z,99633
2018-04-10T08:52:51.914Z,99638
2018-04-10T08:55:20.211Z,99631
2018-04-10T08:57:48.691Z,99635
2018-04-10T09:00:17.040Z,99637
2018-04-10T09:02:45.742Z,99635
2018-04-10T09:05:14.193Z,99634
2018-04-10T09:07:43.233Z,99632
2018-04-10T09:10:11.560Z,99634
2018-04-10T09:12:40.761Z,99630
2018-04-10T09:15:09.878Z,99633
2018-04-10T09:17:38.333Z,99635
2018-04-10T09:20:08.349Z,99629
2018-04-10T09:22:43.955Z,99631
2018-04-10T09:25:12.278Z,99629
2018-04-10T09:27:41.810Z,99626
2018-04-10T09:30:10.185Z,99628
2018-04-10T09:32:38.659Z,99630
2018-04-10T09:35:06.982Z,99628
2018-04-10T09:37:35.654Z,99630
2018-04-10T09:40:04.295Z,99634
2018-04-10T09:42:32.777Z,99630
2018-04-10T09:45:01.083Z,99628
2018-04-10T09:47:29.641Z,99633
2018-04-10T09:49:57.977Z,99624
2018-04-10T09:52:26.467Z,99621
2018-04-10T09:54:54.977Z,99619
2018-04-10T09:57:23.273Z,99622
2018-04-10T09:59:51.568Z,99625
2018-04-10T10:02:20.115Z,99620
2018-04-10T10:04:48.619Z,99623
2018-04-10T10:07:17.015Z,99620
2018-04-10T10:09:45.583Z,99620
2018-04-10T10:12:14.090Z,99616
2018-04-10T10:14:42.432Z,99615
2018-04-10T10:17:10.817Z,99615
2018-04-10T10:19:39.367Z,99615
2018-04-10T10:22:08.613Z,99603
2018-04-10T10:24:37.017Z,99603
2018-04-10T10:27:05.333Z,99607
2018-04-10T10:29:33.948Z,99614
2018-04-10T10:32:02.262Z,99607
2018-04-10T10:34:30.823Z,99612
2018-04-10T10:36:59.135Z,99611
2018-04-10T10:39:28.364Z,99610
2018-04-10T10:41:56.903Z,99608
2018-04-10T10:44:25.320Z,99613
2018-04-10T10:46:53.633Z,99603
2018-04-10T10:49:22.033Z,99601
2018-04-10T10:51:51.967Z,99599
2018-04-10T10:54:21.084Z,99593
2018-04-10T10:56:49.604Z,99592
2018-04-10T10:59:18.392Z,99595
2018-04-10T11:01:47.780Z,99590
2018-04-10T11:04:16.176Z,99589
2018-04-10T11:06:44.480Z,99584
2018-04-10T11:09:13.728Z,99581
2018-04-10T11:11:42.042Z,99583
2018-04-10T11:14:10.369Z,99581
2018-04-10T11:16:38.808Z,99574
2018-04-10T11:19:07.297Z,99578
2018-04-10T11:21:35.652Z,99575
2018-04-10T11:24:04.098Z,99579
2018-04-10T11:26:32.402Z,99577
2018-04-10T11:29:00.667Z,99572
2018-04-10T11:31:29.373Z,99576
2018-04-10T11:33:57.872Z,99569
2018-04-10T11:36:26.265Z,99570
2018-04-10T11:38:55.481Z,99565
2018-04-10T11:41:23.805Z,99562
2018-04-10T11:43:52.444Z,99563
2018-04-10T11:46:21.090Z,99562
2018-04-10T11:48:49.744Z,99555
2018-04-10T11:51:18.168Z,99551
2018-04-10T11:53:47.366Z,99557
2018-04-10T11:56:15.776Z,99554
2018-04-10T11:58:44.359Z,99557
2018-04-10T12:01:13.569Z,99555
2018-04-10T12:03:41.875Z,99552
2018-04-10T12:06:10.178Z,99554
2018-04-10T12:08:39.388Z,99554
2018-04-10T12:11:08.463Z,99549
2018-04-10T12:13:36.802Z,99548
2018-04-10T12:16:05.094Z,99546
2018-04-10T12:18:33.418Z,99539
2018-04-10T12:21:02.025Z,99534
2018-04-10T12:23:30.547Z,99533
2018-04-10T12:25:58.920Z,99534
2018-04-10T12:28:27.232Z,99527
2018-04-10T12:30:55.960Z,99534
2018-04-10T12:33:24.436Z,99524
2018-04-10T12:35:53.727Z,99518
2018-04-10T12:38:22.054Z,99524
2018-04-10T12:40:50.403Z,99520
2018-04-10T12:43:18.719Z,99514
2018-04-10T12:45:47.854Z,99510
2018-04-10T12:48:16.161Z,99511
2018-04-10T12:50:44.527Z,99509
2018-04-10T12:53:14.354Z,99508
2018-04-10T12:55:42.803Z,99505
2018-04-10T12:58:11.202Z,99501
2018-04-10T13:00:39.673Z,99493
2018-04-10T13:03:08.029Z,99489
2018-04-10T13:05:36.522Z,99491
2018-04-10T13:08:04.914Z,99490
2018-04-10T13:10:33.248Z,99488
2018-04-10T13:13:02.444Z,99483
2018-04-10T13:15:31.617Z,99486
2018-04-10T13:17:59.967Z,99483
2018-04-10T13:20:28.521Z,99487
2018-04-10T13:22:56.964Z,99481
2018-04-10T13:25:26.108Z,99481
2018-04-10T13:27:54.641Z,99480
2018-04-10T13:30:23.142Z,99485
2018-04-10T13:32:52.383Z,99482
2018-04-10T13:35:21.031Z,99478
2018-04-10T13:37:50.249Z,99483
2018-04-10T13:40:18.883Z,99475
2018-04-10T13:42:47.189Z,99474
2018-04-10T13:45:16.397Z,99478
2018-04-10T13:47:44.772Z,99481
2018-04-10T13:50:13.963Z,99476
2018-04-10T13:52:43.126Z,99478
2018-04-10T13:55:11.535Z,99476
2018-04-10T13:57:40.722Z,99471
2018-04-10T14:00:09.828Z,99471
2018-04-10T14:02:39.044Z,99469
2018-04-10T14:05:07.613Z,99466
2018-04-10T14:07:36.702Z,99463
2018-04-10T14:10:05.780Z,99457
2018-04-10T14:12:35.699Z,99451
2018-04-10T14:15:05.047Z,99452
2018-04-10T14:17:33.629Z,99449
2018-04-10T14:20:02.095Z,99446
2018-04-10T14:22:30.408Z,99449
2018-04-10T14:24:58.820Z,99445
2018-04-10T14:27:28.377Z,99441
2018-04-10T14:29:56.687Z,99439
2018-04-10T14:32:25.103Z,99437
2018-04-10T14:34:54.250Z,99443
2018-04-10T14:37:22.783Z,99441
2018-04-10T14:39:52.591Z,99436
2018-04-10T14:42:22.991Z,99432
2018-04-10T14:44:51.603Z,99428
2018-04-10T14:47:20.020Z,99416
2018-04-10T14:49:48.608Z,99426
2018-04-10T14:52:17.131Z,99429
2018-04-10T14:54:46.075Z,99419
2018-04-10T14:57:14.448Z,99411
2018-04-10T14:59:43.103Z,99412
2018-04-10T15:02:11.707Z,99413
2018-04-10T15:04:40.208Z,99406
2018-04-10T15:07:08.926Z,99398
2018-04-10T15:09:37.356Z,99396
2018-04-10T15:12:06.136Z,99394
2018-04-10T15:14:36.579Z,99397
2018-04-10T15:17:04.999Z,99395
2018-04-10T15:19:33.365Z,99397
2018-04-10T15:22:01.755Z,99403
2018-04-10T15:24:30.878Z,99398
2018-04-10T15:27:00.060Z,99402
2018-04-10T15:29:28.574Z,99394
2018-04-10T15:31:57.074Z,99397
2018-04-10T15:34:25.553Z,99391
2018-04-10T15:36:53.865Z,99393
2018-04-10T15:39:22.227Z,99387
2018-04-10T15:41:51.074Z,99385
2018-04-10T15:44:19.440Z,99386
2018-04-10T15:46:49.484Z,99389
2018-04-10T15:49:18.001Z,99392
2018-04-10T15:51:46.367Z,99388
2018-04-10T15:54:14.808Z,99389
2018-04-10T15:56:43.507Z,99388
2018-04-10T15:59:11.957Z,99385
2018-04-10T16:01:41.228Z,99381
2018-04-10T16:04:10.385Z,99386
2018-04-10T16:06:38.759Z,99393
2018-04-10T16:09:07.265Z,99389
2018-04-10T16:11:35.845Z,99395
2018-04-10T16:14:04.230Z,99389
2018-04-10T16:16:32.567Z,99395
2018-04-10T16:19:02.818Z,99391
2018-04-10T16:21:31.165Z,99392
2018-04-10T16:24:00.272Z,99390
2018-04-10T16:26:28.615Z,99383
2018-04-10T16:28:57.430Z,99387
2018-04-10T16:31:26.606Z,99381
2018-04-10T16:33:54.975Z,99379
2018-04-10T16:36:23.502Z,99384
2018-04-10T16:38:51.838Z,99379
2018-04-10T16:41:20.187Z,99377
2018-04-10T16:43:48.556Z,99378
2018-04-10T16:46:16.931Z,99382
2018-04-10T16:48:45.459Z,99385
2018-04-10T16:51:13.805Z,99385
2018-04-10T16:53:42.264Z,99388
2018-04-10T16:56:10.642Z,99386
2018-04-10T16:58:39.068Z,99390
2018-04-10T17:01:07.562Z,99383
2018-04-10T17:03:36.674Z,99389
2018-04-10T17:06:06.994Z,99386
2018-04-10T17:08:36.150Z,99390
2018-04-10T17:11:04.485Z,99386
2018-04-10T17:13:32.893Z,99387
2018-04-10T17:16:01.255Z,99379
2018-04-10T17:18:29.885Z,99380
2018-04-10T17:20:58.303Z,99380
2018-04-10T17:23:26.640Z,99385
2018-04-10T17:25:55.054Z,99390
2018-04-10T17:28:23.422Z,99391
2018-04-10T17:30:52.608Z,99394
2018-04-10T17:33:21.049Z,99390
2018-04-10T17:35:49.459Z,99389
2018-04-10T17:38:18.697Z,99392
2018-04-10T17:40:47.150Z,99398
2018-04-10T17:43:16.397Z,99402
2018-04-10T17:45:44.758Z,99403
2018-04-10T17:48:13.149Z,99410
2018-04-10T17:50:41.527Z,99412
2018-04-10T17:53:11.533Z,99415
2018-04-10T17:55:39.939Z,99417
2018-04-10T17:58:08.371Z,99418
2018-04-10T18:00:37.495Z,99426
2018-04-10T18:03:05.894Z,99425
2018-04-10T18:05:34.355Z,99429
2018-04-10T18:08:02.941Z,99433
2018-04-10T18:10:31.385Z,99437
2018-04-10T18:13:00.222Z,99436
2018-04-10T18:15:28.779Z,99430
2018-04-10T18:17:57.230Z,99429
2018-04-10T18:20:26.440Z,99427
2018-04-10T18:22:55.576Z,99415
2018-04-10T18:25:24.091Z,99417
2018-04-10T18:27:52.640Z,99409
2018-04-10T18:30:21.611Z,99410
2018-04-10T18:32:50.055Z,99411
2018-04-10T18:35:18.614Z,99413
2018-04-10T18:37:47.701Z,99417
2018-04-10T18:40:16.899Z,99421
2018-04-10T18:42:45.295Z,99425
2018-04-10T18:45:13.863Z,99433
2018-04-10T18:47:42.237Z,99434
2018-04-10T18:50:10.728Z,99443
2018-04-10T18:52:39.038Z,99447
2018-04-10T18:55:07.633Z,99447
2018-04-10T18:57:40.039Z,99447
2018-04-10T19:00:08.789Z,99454
2018-04-10T19:02:38.610Z,99451
2018-04-10T19:05:08.163Z,99452
2018-04-10T19:07:36.524Z,99449
2018-04-10T19:10:04.947Z,99451
2018-04-10T19:12:34.894Z,99452
2018-04-10T19:15:03.609Z,99456
2018-04-10T19:17:32.125Z,99451
2018-04-10T19:20:01.496Z,99460
2018-04-10T19:22:29.990Z,99459
2018-04-10T19:24:58.339Z,99476
2018-04-10T19:27:27.247Z,99521
2018-04-10T19:29:55.610Z,99576
2018-04-10T19:32:24.050Z,99577
2018-04-10T19:34:52.454Z,99577
2018-04-10T19:37:20.928Z,99570
2018-04-10T19:39:49.344Z,99579
2018-04-10T19:42:17.629Z,99587
2018-04-10T19:44:46.202Z,99593
2018-04-10T19:47:14.531Z,99591
2018-04-10T19:49:43.716Z,99602
2018-04-10T19:52:12.048Z,99607
2018-04-10T19:54:40.443Z,99594
2018-04-10T19:57:08.877Z,99595
2018-04-10T19:59:38.308Z,99592
2018-04-10T20:02:06.782Z,99589
2018-04-10T20:04:35.194Z,99588
2018-04-10T20:07:03.828Z,99587
2018-04-10T20:09:32.401Z,99584
2018-04-10T20:12:01.653Z,99584
2018-04-10T20:14:29.964Z,99589
2018-04-10T20:16:58.495Z,99596
2018-04-10T20:19:26.897Z,99600
2018-04-10T20:21:55.398Z,99602
2018-04-10T20:24:23.904Z,99605
2018-04-10T20:26:53.054Z,99608
2018-04-10T20:29:21.373Z,99617
2018-04-10T20:31:50.538Z,99625
2018-04-10T20:34:19.707Z,99635
2018-04-10T20:36:48.020Z,99645
2018-04-10T20:39:16.484Z,99653
2018-04-10T20:41:44.925Z,99653
2018-04-10T20:44:13.541Z,99661
2018-04-10T20:46:41.968Z,99641
2018-04-10T20:49:11.134Z,99644
2018-04-10T20:51:39.494Z,99634
2018-04-10T20:54:07.955Z,99633
2018-04-10T20:56:36.318Z,99630
2018-04-10T20:59:04.713Z,99631
2018-04-10T21:01:34.089Z,99635
2018-04-10T21:04:03.375Z,99640
2018-04-10T21:06:31.807Z,99637
2018-04-10T21:09:00.209Z,99644
2018-04-10T21:11:28.564Z,99646
2018-04-10T21:13:56.890Z,99646
2018-04-10T21:16:26.244Z,99644
2018-04-10T21:18:54.720Z,99645
2018-04-10T21:21:23.219Z,99638
2018-04-10T21:23:53.402Z,99639
2018-04-10T21:26:21.756Z,99634
2018-04-10T21:28:50.995Z,99625
2018-04-10T21:31:19.350Z,99629
2018-04-10T21:33:47.796Z,99635
2018-04-10T21:36:16.382Z,99636
2018-04-10T21:38:44.752Z,99641
2018-04-10T21:41:13.082Z,99647
2018-04-10T21:43:41.421Z,99652
2018-04-10T21:46:09.846Z,99651
2018-04-10T21:48:38.250Z,99655
2018-04-10T21:51:06.819Z,99656
2018-04-10T21:53:35.284Z,99664
2018-04-10T21:56:03.799Z,99663
2018-04-10T21:58:32.194Z,99671
2018-04-10T22:01:00.720Z,99678
2018-04-10T22:03:29.152Z,99684
2018-04-10T22:05:57.532Z,99690
2018-04-10T22:08:26.776Z,99695
2018-04-10T22:10:55.094Z,99693
2018-04-10T22:13:23.439Z,99702
2018-04-10T22:15:51.972Z,99706
2018-04-10T22:18:20.450Z,99716
2018-04-10T22:20:48.796Z,99719
2018-04-10T22:23:17.075Z,99690
2018-04-10T22:25:45.485Z,99733
2018-04-10T22:28:13.860Z,99721
2018-04-10T22:30:42.340Z,99730
2018-04-10T22:33:10.771Z,99729
2018-04-10T22:35:39.216Z,99732
2018-04-10T22:38:07.618Z,99728
2018-04-10T22:40:35.975Z,99741
2018-04-10T22:43:04.444Z,99743
2018-04-10T22:45:33.561Z,99741
2018-04-10T22:48:01.890Z,99744
2018-04-10T22:50:30.475Z,99745
2018-04-10T22:52:58.785Z,99747
2018-04-10T22:55:27.216Z,99745
2018-04-10T22:57:55.537Z,99750
2018-04-10T23:03:29.926Z,99743
2018-04-10T23:05:58.221Z,99744
2018-04-10T23:08:26.533Z,99746
2018-04-10T23:10:55.636Z,99744
2018-04-10T23:13:24.714Z,99739
2018-04-10T23:15:56.233Z,99739
2018-04-10T23:18:24.775Z,99739
2018-04-10T23:20:54.009Z,99750
2018-04-10T23:23:22.631Z,99752
2018-04-10T23:25:50.952Z,99752
2018-04-10T23:28:19.409Z,99760
2018-04-10T23:30:48.656Z,99766
2018-04-10T23:33:16.942Z,99770
2018-04-10T23:35:46.363Z,99771
2018-04-10T23:38:15.021Z,99772
2018-04-10T23:40:43.479Z,99765
2018-04-10T23:43:11.753Z,99767
2018-04-10T23:45:40.062Z,99761
2018-04-10T23:48:08.522Z,99761
2018-04-10T23:50:36.865Z,99772
2018-04-10T23:53:05.450Z,99780
2018-04-10T23:55:33.751Z,99779
2018-04-10T23:58:02.879Z,99781
